Time;durP1;ratioP1;P1;durP2;ratioP2;P2;SDS_P1;SDS_P2;PMS_P1;PMS_P2;Temp;Humidity;BMP_temperature;BMP_pressure;BME280_temperature;BME280_humidity;BME280_pressure;Samples;Min_cycle;Max_cycle;Signal;HPM_P1;HPM_P2
2022/09/22 00:01:01;;;;;;;12.95;9.27;;;10.90;99.90;;;;;;5053445;28;20197;-72
2022/09/22 00:03:31;;;;;;;18.08;11.00;;;10.90;99.90;;;;;;5063680;28;20196;-70
2022/09/22 00:06:03;;;;;;;11.73;8.65;;;10.90;99.90;;;;;;5041226;28;20244;-71
2022/09/22 00:08:33;;;;;;;13.52;9.48;;;10.80;99.90;;;;;;5048329;28;20220;-70
2022/09/22 00:11:07;;;;;;;16.90;9.82;;;10.80;99.90;;;;;;5040977;28;20209;-71
2022/09/22 00:13:35;;;;;;;16.23;9.88;;;10.80;99.90;;;;;;5017621;28;20224;-73
2022/09/22 00:16:06;;;;;;;14.05;9.30;;;10.80;99.90;;;;;;5040313;28;20196;-71
2022/09/22 00:19:05;;;;;;;16.48;11.13;;;10.70;99.90;;;;;;5044664;28;20734;-71
2022/09/22 00:21:32;;;;;;;13.75;9.15;;;10.80;99.90;;;;;;5048993;28;20245;-70
2022/09/22 00:24:01;;;;;;;13.65;8.75;;;10.70;99.90;;;;;;5053054;28;20697;-72
2022/09/22 00:26:30;;;;;;;12.98;9.75;;;10.70;99.90;;;;;;5044009;28;20586;-70
2022/09/22 00:28:59;;;;;;;14.15;10.40;;;10.60;99.90;;;;;;5050278;28;20201;-73
2022/09/22 00:31:27;;;;;;;16.88;10.85;;;10.60;99.90;;;;;;5041529;28;20658;-71
2022/09/22 00:33:55;;;;;;;13.70;9.00;;;10.70;99.90;;;;;;5044924;28;20203;-71
2022/09/22 00:36:24;;;;;;;13.50;8.98;;;10.60;99.90;;;;;;5037992;28;20625;-73
2022/09/22 00:38:52;;;;;;;12.15;8.00;;;10.60;99.90;;;;;;5040573;28;20627;-72
2022/09/22 00:41:23;;;;;;;17.02;9.18;;;10.60;99.90;;;;;;5043983;28;20214;-70
2022/09/22 00:44:12;;;;;;;12.48;7.72;;;10.60;99.90;;;;;;5043035;28;20646;-72
2022/09/22 00:46:41;;;;;;;8.40;7.55;;;10.60;99.90;;;;;;5037184;28;20223;-73
2022/09/22 00:49:08;;;;;;;10.77;6.90;;;10.60;99.90;;;;;;5040461;28;20517;-72
2022/09/22 00:51:40;;;;;;;14.90;8.82;;;10.60;99.90;;;;;;5043244;28;20224;-70
2022/09/22 00:54:09;;;;;;;10.27;8.10;;;10.60;99.90;;;;;;5049117;28;20295;-70
2022/09/22 00:56:46;;;;;;;11.95;8.43;;;10.60;99.90;;;;;;5043588;28;20188;-71
2022/09/22 00:59:17;;;;;;;9.65;7.63;;;10.50;99.90;;;;;;5051878;28;20199;-71
2022/09/22 01:01:44;;;;;;;12.52;7.70;;;10.60;99.90;;;;;;5038065;28;20666;-71
2022/09/22 01:04:11;;;;;;;14.15;8.13;;;10.60;99.90;;;;;;5051974;28;20286;-72
2022/09/22 01:06:40;;;;;;;10.15;8.10;;;10.60;99.90;;;;;;5038204;28;20216;-71
2022/09/22 01:09:07;;;;;;;12.50;8.32;;;10.60;99.90;;;;;;5045249;28;20210;-71
2022/09/22 01:11:36;;;;;;;14.52;8.85;;;10.60;99.90;;;;;;5052359;28;20278;-70
2022/09/22 01:14:13;;;;;;;13.68;7.80;;;10.50;99.90;;;;;;5053178;28;20204;-70
2022/09/22 01:20:01;;;;;;;10.65;8.40;;;10.50;99.90;;;;;;5042222;28;20214;-70
2022/09/22 01:26:34;;;;;;;10.82;7.57;;;10.50;99.90;;;;;;4995469;28;20255;-70
2022/09/22 01:29:37;;;;;;;14.05;8.45;;;10.40;99.90;;;;;;5023741;28;20261;-71
2022/09/22 01:32:09;;;;;;;13.20;8.63;;;10.40;99.90;;;;;;5056409;28;20670;-71
2022/09/22 01:34:56;;;;;;;9.45;8.32;;;10.20;99.90;;;;;;5056332;28;20645;-71
2022/09/22 01:37:28;;;;;;;12.80;8.35;;;10.20;99.90;;;;;;5048147;28;20220;-72
2022/09/22 01:40:12;;;;;;;11.55;8.02;;;10.20;99.90;;;;;;5051738;28;20230;-73
2022/09/22 01:46:05;;;;;;;13.15;7.85;;;10.20;99.90;;;;;;5047739;28;20224;-73
2022/09/22 01:49:06;;;;;;;11.10;7.70;;;10.20;99.90;;;;;;5052533;28;20228;-71
2022/09/22 01:51:39;;;;;;;10.50;7.60;;;10.30;99.90;;;;;;5066421;28;20226;-71
2022/09/22 01:54:14;;;;;;;10.02;7.22;;;10.20;99.90;;;;;;5046711;28;20202;-71
2022/09/22 01:56:44;;;;;;;9.82;7.20;;;10.20;99.90;;;;;;5051798;28;20294;-71
2022/09/22 01:59:14;;;;;;;11.60;8.02;;;10.20;99.90;;;;;;5048005;28;20203;-70
2022/09/22 02:01:47;;;;;;;10.93;7.90;;;10.10;99.90;;;;;;5055040;28;20227;-70
2022/09/22 02:04:19;;;;;;;12.63;6.85;;;10.10;99.90;;;;;;5055778;28;20580;-72
2022/09/22 02:06:49;;;;;;;10.38;6.75;;;10.20;99.90;;;;;;5053621;28;20255;-71
2022/09/22 02:09:20;;;;;;;16.00;7.53;;;10.20;99.90;;;;;;5055334;28;20721;-72
2022/09/22 02:11:48;;;;;;;12.35;7.22;;;10.20;99.90;;;;;;5054699;28;20291;-69
2022/09/22 02:14:15;;;;;;;9.85;6.85;;;10.20;99.90;;;;;;5057268;28;20298;-72
2022/09/22 02:16:43;;;;;;;8.77;6.75;;;10.20;99.90;;;;;;5058082;28;20202;-71
2022/09/22 02:19:15;;;;;;;9.60;6.30;;;10.20;99.90;;;;;;5057311;28;20237;-73
2022/09/22 02:21:45;;;;;;;7.30;6.32;;;10.20;99.90;;;;;;5050232;28;20200;-70
2022/09/22 02:24:30;;;;;;;7.20;6.50;;;10.20;99.90;;;;;;5056963;28;20284;-71
2022/09/22 02:27:00;;;;;;;6.97;5.75;;;10.20;99.90;;;;;;5050131;28;20310;-72
2022/09/22 02:29:30;;;;;;;9.80;6.90;;;10.20;99.90;;;;;;5054529;28;20200;-71
2022/09/22 02:32:01;;;;;;;11.10;6.90;;;10.20;99.90;;;;;;5053638;28;20214;-69
2022/09/22 02:34:28;;;;;;;9.32;6.43;;;10.10;99.90;;;;;;5051897;28;20669;-71
2022/09/22 02:37:06;;;;;;;8.30;6.60;;;10.10;99.90;;;;;;5049864;28;20600;-71
2022/09/22 02:39:39;;;;;;;8.38;7.47;;;10.00;99.90;;;;;;5046559;28;20545;-69
2022/09/22 02:42:25;;;;;;;8.02;6.80;;;10.00;99.90;;;;;;5044686;28;20310;-69
2022/09/22 02:44:59;;;;;;;8.93;8.02;;;10.00;99.90;;;;;;5039241;28;20234;-68
2022/09/22 02:47:32;;;;;;;11.27;8.95;;;10.00;99.90;;;;;;5017447;28;20235;-70
2022/09/22 02:50:08;;;;;;;14.05;9.82;;;9.70;99.90;;;;;;5039235;28;20567;-67
2022/09/22 02:52:37;;;;;;;14.52;9.60;;;9.70;99.90;;;;;;5042822;28;20207;-69
2022/09/22 02:55:18;;;;;;;14.23;9.77;;;9.60;99.90;;;;;;5040954;28;20278;-69
2022/09/22 02:57:45;;;;;;;11.43;10.10;;;9.60;99.90;;;;;;5050293;28;20597;-69
2022/09/22 03:00:13;;;;;;;11.90;9.52;;;9.50;99.90;;;;;;5034914;28;20681;-70
2022/09/22 03:02:40;;;;;;;15.93;10.35;;;9.40;99.90;;;;;;5040618;28;20286;-69
2022/09/22 03:05:07;;;;;;;11.18;9.80;;;9.40;99.90;;;;;;5037050;28;20588;-70
2022/09/22 03:07:36;;;;;;;14.30;12.40;;;9.40;99.90;;;;;;5044624;28;20704;-69
2022/09/22 03:10:03;;;;;;;14.20;10.45;;;9.30;99.90;;;;;;5034834;28;20562;-70
2022/09/22 03:12:30;;;;;;;11.13;9.82;;;9.40;99.90;;;;;;5038874;28;20204;-70
2022/09/22 03:14:57;;;;;;;13.65;11.15;;;9.40;99.90;;;;;;5035153;28;20604;-70
2022/09/22 03:17:24;;;;;;;13.90;11.73;;;9.50;99.90;;;;;;5044446;28;20224;-71
2022/09/22 03:19:51;;;;;;;13.30;11.05;;;9.40;99.90;;;;;;5041746;28;20290;-69
2022/09/22 03:22:18;;;;;;;12.95;11.65;;;9.30;99.90;;;;;;5039470;28;20295;-70
2022/09/22 03:24:46;;;;;;;11.70;10.50;;;9.30;99.90;;;;;;5036794;28;20205;-71
2022/09/22 03:27:14;;;;;;;13.93;11.25;;;9.30;99.90;;;;;;5036798;28;20239;-70
2022/09/22 03:29:41;;;;;;;11.95;10.85;;;9.30;99.90;;;;;;5044334;28;20670;-69
2022/09/22 03:32:08;;;;;;;12.77;11.57;;;9.30;99.90;;;;;;5050374;28;20206;-69
2022/09/22 03:34:34;;;;;;;10.57;9.48;;;9.30;99.90;;;;;;5046507;28;20203;-70
2022/09/22 03:37:03;;;;;;;13.10;10.63;;;9.40;99.90;;;;;;5049210;28;20288;-69
2022/09/22 03:39:30;;;;;;;10.85;9.85;;;9.40;99.90;;;;;;5052367;28;20316;-70
2022/09/22 03:41:59;;;;;;;10.52;9.23;;;9.30;99.90;;;;;;5036826;28;20201;-69
2022/09/22 03:44:26;;;;;;;10.63;9.68;;;9.30;99.90;;;;;;5039442;28;20270;-69
2022/09/22 03:46:53;;;;;;;12.85;9.52;;;9.30;99.90;;;;;;5038156;28;20224;-70
2022/09/22 03:49:20;;;;;;;14.73;12.15;;;9.30;99.90;;;;;;5049435;28;20670;-69
2022/09/22 03:51:47;;;;;;;12.50;10.85;;;9.20;99.90;;;;;;5041151;28;20202;-68
2022/09/22 03:54:13;;;;;;;15.73;12.80;;;9.20;99.90;;;;;;5034192;28;20287;-70
2022/09/22 03:56:40;;;;;;;12.45;11.45;;;9.20;99.90;;;;;;5036890;28;20634;-70
2022/09/22 03:59:10;;;;;;;14.65;12.88;;;9.10;99.90;;;;;;5043918;28;20200;-68
2022/09/22 04:01:37;;;;;;;20.90;16.25;;;9.10;99.90;;;;;;5033824;28;20202;-70
2022/09/22 04:04:05;;;;;;;17.23;14.52;;;9.00;99.90;;;;;;5034020;28;20200;-69
2022/09/22 04:06:32;;;;;;;15.02;13.65;;;9.00;99.90;;;;;;5034757;28;20200;-70
2022/09/22 04:09:00;;;;;;;15.10;13.43;;;9.00;99.90;;;;;;5033962;28;20211;-70
2022/09/22 04:11:27;;;;;;;15.57;14.07;;;8.90;99.90;;;;;;5036631;28;20575;-70
2022/09/22 04:13:54;;;;;;;15.48;14.02;;;8.90;99.90;;;;;;5044298;28;20198;-71
2022/09/22 04:16:23;;;;;;;13.95;12.55;;;8.90;99.90;;;;;;5036977;28;20678;-72
2022/09/22 04:18:51;;;;;;;18.05;14.75;;;8.90;99.90;;;;;;5035976;28;20223;-69
2022/09/22 04:21:19;;;;;;;16.88;15.15;;;8.80;99.90;;;;;;5039744;28;20204;-69
2022/09/22 04:23:46;;;;;;;17.35;13.95;;;8.80;99.90;;;;;;5048659;28;20204;-71
2022/09/22 04:26:13;;;;;;;14.75;13.45;;;8.80;99.90;;;;;;5045646;28;20203;-67
2022/09/22 04:28:40;;;;;;;11.82;10.82;;;8.80;99.90;;;;;;5040543;28;20285;-69
2022/09/22 04:31:07;;;;;;;14.88;13.48;;;8.80;99.90;;;;;;5045338;28;20582;-69
2022/09/22 04:33:36;;;;;;;17.15;14.70;;;8.90;99.90;;;;;;5044986;28;20543;-70
2022/09/22 04:36:03;;;;;;;18.73;15.65;;;8.80;99.90;;;;;;5035119;28;20228;-71
2022/09/22 04:38:30;;;;;;;17.33;15.52;;;8.80;99.90;;;;;;5042482;28;20754;-71
2022/09/22 04:40:57;;;;;;;15.85;14.45;;;8.80;99.90;;;;;;5037151;28;20286;-70
2022/09/22 04:43:24;;;;;;;12.90;11.73;;;8.80;99.90;;;;;;5051117;28;20206;-70
2022/09/22 04:45:51;;;;;;;13.90;11.65;;;8.90;99.90;;;;;;5034920;28;20291;-69
2022/09/22 04:48:18;;;;;;;15.50;12.57;;;8.90;99.90;;;;;;5041535;28;20227;-71
2022/09/22 04:50:46;;;;;;;14.00;12.60;;;8.90;99.90;;;;;;5050560;28;20246;-71
2022/09/22 04:53:13;;;;;;;13.15;11.85;;;8.90;99.90;;;;;;5046973;28;20201;-71
2022/09/22 04:55:40;;;;;;;14.10;12.70;;;8.90;99.90;;;;;;5040150;28;20225;-71
2022/09/22 04:58:07;;;;;;;12.57;11.23;;;8.80;99.90;;;;;;5035707;28;20230;-71
2022/09/22 05:00:35;;;;;;;13.65;12.35;;;8.80;99.90;;;;;;5049404;28;20195;-70
2022/09/22 05:03:07;;;;;;;16.52;14.68;;;8.80;99.90;;;;;;5047806;28;20294;-71
2022/09/22 05:05:34;;;;;;;12.80;11.48;;;8.70;99.90;;;;;;5048932;28;20253;-70
2022/09/22 05:08:03;;;;;;;12.70;11.57;;;8.70;99.90;;;;;;5040149;28;20293;-72
2022/09/22 05:10:31;;;;;;;12.65;11.45;;;8.70;99.90;;;;;;5043172;28;20278;-71
2022/09/22 05:12:58;;;;;;;11.90;10.80;;;8.80;99.90;;;;;;5045523;28;20295;-70
2022/09/22 05:15:26;;;;;;;12.73;11.63;;;8.70;99.90;;;;;;5045103;28;20229;-71
2022/09/22 05:17:54;;;;;;;11.68;9.18;;;8.80;99.90;;;;;;5048649;28;20680;-70
2022/09/22 05:20:22;;;;;;;11.55;9.32;;;8.90;99.90;;;;;;5046797;28;20226;-70
2022/09/22 05:22:49;;;;;;;14.20;12.60;;;8.90;99.90;;;;;;5062049;28;20206;-69
2022/09/22 05:25:18;;;;;;;11.30;10.20;;;8.90;99.90;;;;;;5054959;28;20204;-70
2022/09/22 05:27:47;;;;;;;14.10;10.38;;;8.90;99.90;;;;;;5039945;28;20251;-72
2022/09/22 05:30:14;;;;;;;16.17;12.45;;;8.90;99.90;;;;;;5049537;28;20239;-69
2022/09/22 05:32:43;;;;;;;14.13;12.82;;;8.90;99.90;;;;;;5055709;28;20302;-71
2022/09/22 05:35:10;;;;;;;13.95;10.52;;;8.90;99.90;;;;;;5055517;28;20209;-71
2022/09/22 05:37:37;;;;;;;14.77;11.52;;;8.90;99.90;;;;;;5046368;28;20211;-70
2022/09/22 05:40:06;;;;;;;12.77;11.50;;;8.90;99.90;;;;;;5053473;28;20290;-71
2022/09/22 05:42:39;;;;;;;11.82;10.48;;;8.90;99.90;;;;;;5051646;28;20204;-70
2022/09/22 05:45:07;;;;;;;9.95;8.95;;;8.90;99.90;;;;;;5055205;28;20268;-70
2022/09/22 05:47:34;;;;;;;11.40;9.60;;;9.10;99.90;;;;;;5045945;28;20220;-69
2022/09/22 05:50:01;;;;;;;9.77;8.70;;;9.10;99.90;;;;;;5041761;28;20210;-70
2022/09/22 05:52:30;;;;;;;10.18;8.32;;;9.20;99.90;;;;;;5041438;28;20706;-70
2022/09/22 05:54:57;;;;;;;10.23;7.50;;;9.20;99.90;;;;;;5037388;28;20654;-70
2022/09/22 05:57:26;;;;;;;7.88;7.20;;;9.30;99.90;;;;;;5049028;28;20294;-70
2022/09/22 05:59:55;;;;;;;9.93;7.88;;;9.30;99.90;;;;;;5044020;28;20239;-70
2022/09/22 06:02:22;;;;;;;11.30;8.18;;;9.40;99.90;;;;;;5050678;28;20259;-71
2022/09/22 06:04:49;;;;;;;9.88;8.88;;;9.40;99.90;;;;;;5044114;28;20207;-68
2022/09/22 06:07:19;;;;;;;13.73;8.70;;;9.40;99.90;;;;;;5041724;28;20293;-71
2022/09/22 06:09:46;;;;;;;10.30;9.30;;;9.60;99.90;;;;;;5046444;28;20572;-69
2022/09/22 06:12:13;;;;;;;12.65;8.82;;;9.70;99.90;;;;;;5046327;28;20223;-69
2022/09/22 06:14:40;;;;;;;10.88;9.73;;;9.90;99.90;;;;;;5044582;28;20200;-69
2022/09/22 06:17:10;;;;;;;8.07;7.28;;;10.00;99.90;;;;;;5042133;28;20220;-70
2022/09/22 06:19:37;;;;;;;9.98;8.15;;;10.10;99.90;;;;;;5042060;28;20671;-70
2022/09/22 06:22:04;;;;;;;6.88;6.28;;;10.40;99.90;;;;;;5042758;28;20202;-67
2022/09/22 06:24:31;;;;;;;12.57;6.97;;;11.00;99.90;;;;;;5039730;28;20213;-71
2022/09/22 06:26:58;;;;;;;11.23;6.78;;;11.80;99.90;;;;;;5039880;28;20219;-73
2022/09/22 06:29:25;;;;;;;7.95;6.55;;;12.80;99.90;;;;;;5042017;28;20731;-71
2022/09/22 06:31:52;;;;;;;8.02;5.70;;;13.80;99.90;;;;;;5042177;28;20197;-72
2022/09/22 06:34:21;;;;;;;5.40;4.90;;;14.70;99.90;;;;;;5039027;28;20199;-71
2022/09/22 06:36:50;;;;;;;4.53;4.03;;;15.40;99.90;;;;;;5049663;28;20223;-73
2022/09/22 06:39:16;;;;;;;5.70;4.30;;;16.20;99.90;;;;;;5049801;28;20927;-72
2022/09/22 06:41:44;;;;;;;6.93;5.50;;;17.00;99.90;;;;;;5047199;28;20470;-72
2022/09/22 06:44:11;;;;;;;11.27;4.80;;;17.70;99.90;;;;;;5041419;28;20442;-71
2022/09/22 06:46:38;;;;;;;9.57;6.07;;;18.20;99.90;;;;;;5038251;28;20554;-74
2022/09/22 06:49:05;;;;;;;4.07;3.67;;;18.60;98.00;;;;;;5040310;28;20488;-73
2022/09/22 06:51:37;;;;;;;7.00;5.17;;;19.10;97.20;;;;;;5043449;28;20453;-74
2022/09/22 06:54:06;;;;;;;5.70;4.50;;;19.60;95.40;;;;;;5044920;28;20536;-72
2022/09/22 06:56:38;;;;;;;9.90;4.70;;;19.80;94.00;;;;;;5038352;28;20531;-73
2022/09/22 06:59:13;;;;;;;8.37;4.33;;;20.20;93.40;;;;;;5039062;28;20439;-73
2022/09/22 07:01:41;;;;;;;12.03;6.33;;;20.60;92.40;;;;;;5025249;28;20521;-71
2022/09/22 07:04:10;;;;;;;7.90;4.97;;;20.90;90.60;;;;;;5041622;28;20593;-70
2022/09/22 07:06:39;;;;;;;9.50;4.30;;;21.60;90.60;;;;;;5037540;28;20810;-73
2022/09/22 07:09:07;;;;;;;10.63;5.20;;;22.00;89.70;;;;;;5047124;28;20592;-73
2022/09/22 07:11:39;;;;;;;9.73;4.70;;;21.90;86.80;;;;;;5037668;28;20510;-72
2022/09/22 07:14:06;;;;;;;9.30;3.90;;;21.90;87.60;;;;;;5040435;28;20454;-74
2022/09/22 07:16:34;;;;;;;5.80;4.00;;;22.20;87.80;;;;;;5050717;28;20446;-73
2022/09/22 07:19:01;;;;;;;5.07;4.50;;;22.70;86.70;;;;;;5042471;28;20529;-74
2022/09/22 07:21:34;;;;;;;11.90;5.40;;;23.00;86.10;;;;;;5054473;28;20466;-72
2022/09/22 07:24:02;;;;;;;6.17;5.57;;;23.20;84.00;;;;;;5053226;28;20499;-74
2022/09/22 07:26:31;;;;;;;8.03;5.80;;;23.30;82.80;;;;;;5050201;28;20464;-73
2022/09/22 07:29:00;;;;;;;7.70;4.60;;;23.40;82.80;;;;;;5035608;28;20485;-70
2022/09/22 07:31:29;;;;;;;7.63;4.33;;;23.80;82.00;;;;;;5035334;28;20435;-72
2022/09/22 07:33:59;;;;;;;13.27;4.50;;;24.00;81.40;;;;;;5035161;28;20478;-72
2022/09/22 07:36:27;;;;;;;11.53;6.00;;;24.10;81.10;;;;;;5042596;28;20454;-72
2022/09/22 07:38:56;;;;;;;6.10;4.40;;;23.80;80.60;;;;;;5039106;28;20929;-69
2022/09/22 07:41:27;;;;;;;11.20;4.70;;;24.10;80.90;;;;;;5043336;28;20487;-73
2022/09/22 07:45:11;;;;;;;7.83;4.33;;;24.20;80.60;;;;;;5047778;28;20450;-71
2022/09/22 07:46:45;;;;;;;10.67;4.83;;;24.30;80.50;;;;;;5039034;28;20520;-74
2022/09/22 07:49:13;;;;;;;7.40;4.27;;;24.50;80.20;;;;;;5039353;28;20486;-73
2022/09/22 07:51:41;;;;;;;9.47;5.40;;;23.80;79.40;;;;;;5045713;28;20525;-71
2022/09/22 07:54:07;;;;;;;10.03;4.80;;;24.10;81.10;;;;;;5049798;28;20446;-74
2022/09/22 07:56:38;;;;;;;9.17;4.53;;;24.60;79.50;;;;;;5041526;28;20450;-70
2022/09/22 07:59:08;;;;;;;7.33;4.20;;;24.40;79.20;;;;;;5042347;28;20447;-72
2022/09/22 08:01:38;;;;;;;9.20;4.47;;;24.90;78.20;;;;;;5045585;28;21064;-71
2022/09/22 08:04:05;;;;;;;8.43;3.97;;;24.80;77.60;;;;;;5045161;28;20545;-73
2022/09/22 08:06:35;;;;;;;11.00;4.47;;;25.30;77.00;;;;;;5041712;28;20447;-74
2022/09/22 08:09:05;;;;;;;5.13;3.20;;;25.50;76.40;;;;;;5040892;28;20569;-71
2022/09/22 08:11:32;;;;;;;5.63;3.20;;;25.70;74.70;;;;;;5038922;28;20546;-71
2022/09/22 08:14:02;;;;;;;12.50;3.67;;;25.50;74.80;;;;;;5041881;28;20498;-73
2022/09/22 08:16:31;;;;;;;8.73;3.33;;;25.90;73.10;;;;;;5038092;28;20439;-74
2022/09/22 08:19:01;;;;;;;6.33;2.90;;;25.90;72.50;;;;;;5045235;28;20454;-73
2022/09/22 08:21:34;;;;;;;5.60;2.93;;;26.20;72.40;;;;;;5040807;28;20507;-72
2022/09/22 08:24:01;;;;;;;4.27;2.33;;;26.20;71.30;;;;;;5044733;28;20450;-70
2022/09/22 08:26:28;;;;;;;4.07;2.53;;;25.90;70.60;;;;;;5040549;28;20525;-71
2022/09/22 08:28:56;;;;;;;4.10;2.73;;;26.20;70.30;;;;;;5046037;28;20573;-73
2022/09/22 08:31:26;;;;;;;7.83;2.50;;;26.40;68.20;;;;;;5049273;28;20477;-72
2022/09/22 08:33:55;;;;;;;5.03;1.97;;;26.20;67.10;;;;;;5040272;28;20447;-72
2022/09/22 08:36:24;;;;;;;9.20;2.50;;;26.10;67.60;;;;;;5049144;28;20520;-73
2022/09/22 08:38:51;;;;;;;6.63;3.00;;;26.30;68.00;;;;;;5038119;28;20888;-73
2022/09/22 08:41:24;;;;;;;7.63;3.13;;;26.10;67.10;;;;;;5042462;28;20614;-72
2022/09/22 08:43:56;;;;;;;9.40;2.10;;;26.20;67.60;;;;;;5038270;28;20454;-73
2022/09/22 08:46:29;;;;;;;9.20;2.50;;;25.60;67.40;;;;;;5044038;28;20633;-74
2022/09/22 08:51:56;;;;;;;5.07;2.10;;;26.40;69.50;;;;;;4956193;28;20481;-71
2022/09/22 08:54:27;;;;;;;7.17;2.43;;;26.80;68.30;;;;;;5042265;28;20486;-73
2022/09/22 08:57:31;;;;;;;5.67;2.57;;;26.90;67.20;;;;;;5043764;28;20569;-71
2022/09/22 09:00:04;;;;;;;3.03;1.80;;;27.00;66.00;;;;;;4999798;28;20454;-73
2022/09/22 09:02:40;;;;;;;5.00;2.07;;;27.30;64.50;;;;;;5049707;28;20799;-71
2022/09/22 09:05:43;;;;;;;5.73;1.77;;;26.70;65.30;;;;;;5036252;28;20539;-69
2022/09/22 09:08:33;;;;;;;7.93;2.47;;;26.90;65.70;;;;;;5054779;28;20593;-72
2022/09/22 09:11:14;;;;;;;3.10;1.40;;;26.60;65.40;;;;;;5040889;28;20452;-72
2022/09/22 09:13:57;;;;;;;10.83;3.20;;;26.90;63.70;;;;;;5037677;28;20443;-71
2022/09/22 09:16:36;;;;;;;4.77;1.70;;;27.00;64.10;;;;;;5044133;28;20952;-71
2022/09/22 09:19:15;;;;;;;3.73;2.10;;;26.60;64.10;;;;;;5041235;28;20482;-72
2022/09/22 09:21:49;;;;;;;3.90;1.80;;;26.70;63.90;;;;;;5042949;28;20534;-73
2022/09/22 09:24:26;;;;;;;6.80;3.73;;;26.50;63.50;;;;;;5032852;28;20450;-73
2022/09/22 09:26:57;;;;;;;4.40;1.80;;;26.80;65.60;;;;;;5037138;28;20466;-71
2022/09/22 09:29:26;;;;;;;5.80;2.13;;;26.90;64.40;;;;;;5040426;28;20573;-70
2022/09/22 09:31:57;;;;;;;4.10;2.10;;;27.30;63.00;;;;;;5042779;28;20516;-71
2022/09/22 09:34:28;;;;;;;9.50;1.77;;;27.40;63.70;;;;;;5043180;28;20521;-74
2022/09/22 09:37:06;;;;;;;6.77;2.50;;;27.20;63.30;;;;;;5043023;28;20473;-73
2022/09/22 09:39:36;;;;;;;3.73;1.73;;;27.60;61.90;;;;;;5036821;28;20873;-73
2022/09/22 09:42:16;;;;;;;5.83;2.10;;;27.60;62.00;;;;;;5045630;28;20885;-71
2022/09/22 09:44:45;;;;;;;2.63;1.60;;;27.50;61.30;;;;;;5037121;28;20454;-74
2022/09/22 09:47:21;;;;;;;3.60;1.40;;;26.90;61.90;;;;;;5042049;28;20469;-76
2022/09/22 09:49:50;;;;;;;5.53;2.00;;;26.40;62.80;;;;;;5044794;28;20572;-73
2022/09/22 09:52:19;;;;;;;14.47;3.30;;;26.20;64.20;;;;;;5041612;28;20553;-76
2022/09/22 09:54:47;;;;;;;5.30;2.20;;;26.30;64.30;;;;;;5045946;28;20475;-73
2022/09/22 09:57:16;;;;;;;3.77;1.50;;;26.50;64.30;;;;;;5040314;28;20497;-73
2022/09/22 10:02:49;;;;;;;11.13;2.50;;;26.90;62.40;;;;;;4973113;28;20947;-75
2022/09/22 10:05:25;;;;;;;4.97;1.93;;;26.00;62.90;;;;;;4973266;28;20460;-72
2022/09/22 10:07:57;;;;;;;5.20;2.23;;;25.80;64.60;;;;;;5012132;28;20474;-71
2022/09/22 10:10:34;;;;;;;4.87;2.23;;;26.00;65.40;;;;;;5051032;28;20481;-71
2022/09/22 10:13:28;;;;;;;3.60;1.80;;;26.50;64.00;;;;;;5032199;28;20524;-72
2022/09/22 10:16:04;;;;;;;7.13;1.97;;;27.00;63.10;;;;;;5039182;28;20477;-70
2022/09/22 10:18:36;;;;;;;4.37;2.00;;;27.40;62.70;;;;;;5043399;28;20556;-72
2022/09/22 10:21:14;;;;;;;6.33;2.27;;;27.50;61.90;;;;;;5044895;28;20537;-71
2022/09/22 10:23:42;;;;;;;4.70;1.93;;;26.80;62.90;;;;;;5042843;28;21200;-74
2022/09/22 10:26:18;;;;;;;8.27;1.83;;;25.90;63.90;;;;;;5037843;28;20554;-72
2022/09/22 10:28:49;;;;;;;8.17;2.20;;;25.70;64.90;;;;;;5042275;28;20566;-71
2022/09/22 10:31:23;;;;;;;7.83;2.70;;;25.60;66.40;;;;;;5044952;28;20443;-71
2022/09/22 10:33:55;;;;;;;3.00;1.63;;;24.70;67.70;;;;;;5042616;28;20462;-72
2022/09/22 10:36:26;;;;;;;5.57;2.03;;;23.70;69.00;;;;;;5044932;28;20438;-74
2022/09/22 10:38:53;;;;;;;4.73;1.93;;;23.00;69.00;;;;;;5038466;28;20771;-71
2022/09/22 10:41:26;;;;;;;4.17;1.63;;;22.40;70.00;;;;;;5038459;28;20450;-74
2022/09/22 10:43:55;;;;;;;2.90;1.77;;;21.70;72.10;;;;;;5044588;28;20464;-71
2022/09/22 10:46:42;;;;;;;6.30;1.60;;;21.10;73.90;;;;;;5044464;28;20470;-73
2022/09/22 10:49:13;;;;;;;3.90;2.00;;;20.80;75.00;;;;;;5040256;28;20512;-73
2022/09/22 10:51:54;;;;;;;3.23;1.63;;;20.60;76.80;;;;;;5046253;28;20442;-73
2022/09/22 10:54:43;;;;;;;6.13;2.00;;;20.10;75.30;;;;;;5045544;28;20443;-73
2022/09/22 10:57:31;;;;;;;2.37;1.63;;;19.70;78.20;;;;;;5035383;28;20495;-72
2022/09/22 11:00:10;;;;;;;4.77;2.50;;;19.60;79.30;;;;;;5036030;28;20785;-73
2022/09/22 11:03:15;;;;;;;6.00;1.73;;;19.40;80.40;;;;;;5050702;28;20960;-73
2022/09/22 11:14:35;;;;;;;5.03;2.10;;;19.50;80.20;;;;;;5041096;28;20455;-74
2022/09/22 11:17:19;;;;;;;3.43;2.20;;;19.40;82.20;;;;;;5045044;28;21036;-72
2022/09/22 11:20:21;;;;;;;3.27;1.63;;;19.50;80.70;;;;;;5035136;28;20431;-75
2022/09/22 11:23:08;;;;;;;4.07;2.50;;;19.80;80.30;;;;;;5035340;28;20437;-72
2022/09/22 11:26:00;;;;;;;4.13;1.60;;;20.00;79.70;;;;;;5031463;28;20441;-71
2022/09/22 11:29:09;;;;;;;5.17;1.67;;;20.40;79.10;;;;;;5053993;28;20541;-72
2022/09/22 11:31:48;;;;;;;7.70;1.53;;;20.60;77.30;;;;;;5053827;28;20498;-73
2022/09/22 11:34:48;;;;;;;5.73;1.93;;;20.70;77.20;;;;;;5048682;28;20539;-75
2022/09/22 11:37:28;;;;;;;5.80;2.27;;;20.80;75.80;;;;;;5047232;28;20461;-74
2022/09/22 11:40:27;;;;;;;5.50;1.77;;;20.40;77.70;;;;;;5037523;28;20522;-72
2022/09/22 11:43:08;;;;;;;3.47;1.20;;;20.40;76.20;;;;;;5025384;28;20464;-73
2022/09/22 11:45:51;;;;;;;3.03;1.30;;;20.60;75.10;;;;;;5048679;28;20518;-73
2022/09/22 11:48:31;;;;;;;4.80;1.37;;;20.70;75.30;;;;;;5028605;28;21001;-73
2022/09/22 11:51:16;;;;;;;4.17;1.40;;;20.50;74.80;;;;;;5040297;28;20804;-74
2022/09/22 11:54:06;;;;;;;4.03;1.30;;;20.20;75.60;;;;;;5036839;28;20518;-73
2022/09/22 11:56:39;;;;;;;3.53;1.43;;;20.00;76.80;;;;;;5040830;28;20439;-74
2022/09/22 11:59:25;;;;;;;6.33;1.60;;;20.20;76.50;;;;;;5034315;28;20443;-73
2022/09/22 12:01:55;;;;;;;2.00;1.03;;;20.30;75.90;;;;;;5043730;28;20532;-75
2022/09/22 12:04:29;;;;;;;2.77;1.43;;;20.60;74.90;;;;;;5037469;28;20523;-73
2022/09/22 12:06:56;;;;;;;2.53;1.87;;;20.90;74.40;;;;;;5041712;28;20567;-75
2022/09/22 12:09:34;;;;;;;8.13;2.10;;;21.00;73.80;;;;;;5040907;28;20514;-73
2022/09/22 12:12:03;;;;;;;6.93;1.43;;;20.60;73.50;;;;;;5039699;28;20501;-74
2022/09/22 12:14:33;;;;;;;2.03;0.90;;;20.30;74.30;;;;;;5039869;28;20544;-74
2022/09/22 12:17:04;;;;;;;6.77;1.70;;;20.30;75.20;;;;;;5043533;28;20469;-72
2022/09/22 12:19:39;;;;;;;5.03;2.10;;;20.20;75.00;;;;;;5045288;28;20457;-72
2022/09/22 12:22:14;;;;;;;5.90;1.10;;;20.30;75.20;;;;;;5025028;28;20555;-73
2022/09/22 12:24:45;;;;;;;4.60;1.70;;;20.30;75.70;;;;;;5047800;28;20472;-74
2022/09/22 12:27:19;;;;;;;2.50;1.13;;;20.10;75.60;;;;;;5036070;28;20822;-73
2022/09/22 12:29:54;;;;;;;4.50;1.20;;;20.00;75.00;;;;;;5039180;28;20574;-74
2022/09/22 12:32:24;;;;;;;3.77;1.40;;;20.00;76.20;;;;;;5050311;28;20450;-73
2022/09/22 12:34:52;;;;;;;3.60;1.73;;;20.10;77.10;;;;;;5052393;28;20523;-73
2022/09/22 12:37:28;;;;;;;2.50;1.30;;;20.30;76.20;;;;;;5048781;28;20477;-74
2022/09/22 12:39:57;;;;;;;3.00;1.17;;;20.00;74.00;;;;;;5031897;28;20989;-74
2022/09/22 12:42:32;;;;;;;3.67;1.53;;;19.80;74.20;;;;;;5039331;28;20892;-74
2022/09/22 12:45:08;;;;;;;5.40;1.50;;;19.60;74.90;;;;;;5040079;28;20453;-74
2022/09/22 12:47:37;;;;;;;5.00;2.73;;;19.50;75.80;;;;;;5043257;28;20470;-71
2022/09/22 12:50:26;;;;;;;9.40;2.40;;;19.20;76.80;;;;;;5048126;28;20467;-71
2022/09/22 12:53:03;;;;;;;3.87;1.90;;;19.20;77.20;;;;;;5044403;28;20550;-73
2022/09/22 12:55:37;;;;;;;8.10;4.93;;;19.40;76.50;;;;;;5036209;28;20538;-72
2022/09/22 12:58:35;;;;;;;3.03;1.30;;;19.50;77.20;;;;;;5049794;28;20473;-73
2022/09/22 13:01:32;;;;;;;5.87;2.17;;;19.60;77.70;;;;;;5034155;28;20513;-73
2022/09/22 13:04:17;;;;;;;5.43;1.23;;;19.70;77.30;;;;;;5037274;28;20502;-72
2022/09/22 13:06:56;;;;;;;6.60;2.53;;;19.90;75.60;;;;;;5040785;28;20580;-74
2022/09/22 13:09:28;;;;;;;1.93;0.80;;;20.20;75.20;;;;;;5038565;28;20490;-73
2022/09/22 13:12:26;;;;;;;5.33;2.40;;;20.30;74.80;;;;;;5033535;28;20447;-74
2022/09/22 13:14:59;;;;;;;5.73;1.30;;;20.30;73.90;;;;;;5043737;28;20446;-73
2022/09/22 13:17:40;;;;;;;3.50;1.03;;;20.20;73.80;;;;;;5043807;28;20462;-72
2022/09/22 13:20:20;;;;;;;7.90;2.87;;;19.90;74.70;;;;;;5034289;28;20975;-73
2022/09/22 13:22:47;;;;;;;7.60;3.37;;;19.70;74.80;;;;;;5043650;28;20499;-73
2022/09/22 13:25:22;;;;;;;2.57;1.13;;;19.30;75.10;;;;;;5045131;28;20477;-74
2022/09/22 13:28:05;;;;;;;3.03;1.37;;;19.30;74.90;;;;;;5051342;28;20472;-74
2022/09/22 13:30:32;;;;;;;3.30;1.63;;;19.40;75.10;;;;;;5042757;28;20590;-72
2022/09/22 13:33:01;;;;;;;4.00;1.77;;;19.70;75.50;;;;;;5054293;28;20553;-74
2022/09/22 13:35:31;;;;;;;1.63;0.90;;;19.80;74.70;;;;;;5053556;28;20533;-73